Thunderstorms From: 21-05-2018 15:00 Until: 22-05-2018 15:00 warning for: Thunderstorms Level: Yellow info button

Although rather usual in this region, locally or potentially dangerous phenomena are expected. (such as local winds, summer thunderstorms, rising streams or high waves) Be aware and pay attention to the latest weather updates, especially if you carry out activities exposed to weather or close to a stream or shoreline. 


Meteo18 Weather Cam more information Meteo18 Weather Cam


warning for Thunderstorms more information blitzortung!


Rain radar more information rain snow radar


Visit our other weather sites:

Template documentation
and downloads

And another site



Weather Underground History page Text

Daily Summary for Nil La, TWC- Units:  Metric    English   Both
« Previous Day
Next Day »
Daily Weekly Monthly Yearly Custom
  High: Low: Average:
Temperature: -17.8 °C -12.3 °C -8.7 °C
Dew Point: -17.8 °C -13 °C -11.3 °C
Humidity: Humidity % 52 % 76 %
Wind Speed: 0 km/h 0 km/h 2.6 km/h
Wind Gust: 0 km/h - -
Wind:- - SSW
Pressure: 0 hPa 34222.3 hPa -
Precipitation: 0 mm    
Historical Graphs
 
 
Tabular Data for Nil La, TWC-
Time Temperature Dew Point Pressure Wind Wind Speed Wind Gust Humidity Rainfall Rate (Hourly)
-17.8 °C -17.8 °C 0 hPa Calm     Humidity % 0 mm
00:03 -10.1 °C -11.6 °C 34371.3 hPa NNE 5.1 km/h 10.3 km/h 83 % 0 mm
00:09 -10.2 °C -11.7 °C 34371.3 hPa North 7.6 km/h 10.3 km/h 84 % 0 mm
00:15 -10.2 °C -11.7 °C 34371.3 hPa North 5.1 km/h 7.7 km/h 84 % 0 mm
00:21 -10.3 °C -11.7 °C 34371.3 hPa North 5.1 km/h 5.1 km/h 85 % 0 mm
00:27 -10.4 °C -11.8 °C 34371.3 hPa North 7.6 km/h 7.7 km/h 85 % 0 mm
00:33 -10.4 °C -11.7 °C 34371.3 hPa Calm   5.1 km/h 86 % 0 mm
00:39 -10.4 °C -11.8 °C 34371.3 hPa NNE 2.3 km/h 5.1 km/h 85 % 0 mm
00:45 -10.4 °C -11.8 °C 34371.3 hPa North 2.3 km/h 5.1 km/h 85 % 0 mm
00:51 -10.4 °C -11.7 °C 34371.3 hPa North 2.3 km/h 5.1 km/h 86 % 0 mm
00:58 -10.4 °C -11.8 °C 34371.3 hPa Calm   2.6 km/h 85 % 0 mm
01:04 -10.4 °C -11.8 °C 34371.3 hPa North 5.1 km/h 5.1 km/h 85 % 0 mm
01:10 -10.4 °C -11.8 °C 34371.3 hPa North 5.1 km/h 5.1 km/h 85 % 0 mm
01:16 -10.4 °C -11.8 °C 34371.3 hPa Calm   2.6 km/h 85 % 0 mm
01:22 -10.5 °C -11.8 °C 34371.3 hPa NNE 5.1 km/h 5.1 km/h 86 % 0 mm
01:28 -10.6 °C -11.8 °C 34371.3 hPa Calm   2.6 km/h 86 % 0 mm
01:34 -10.7 °C -11.9 °C 34371.3 hPa Calm     86 % 0 mm
01:40 -10.7 °C -11.8 °C 34361.1 hPa Calm     87 % 0 mm
01:46 -10.7 °C -11.8 °C 34361.1 hPa Calm     87 % 0 mm
01:52 -10.8 °C -12.1 °C 34371.3 hPa Calm   2.6 km/h 86 % 0 mm
01:58 -10.9 °C -12.1 °C 34361.1 hPa Calm     87 % 0 mm
02:04 -10.9 °C -12.1 °C 34361.1 hPa North 2.3 km/h 5.1 km/h 87 % 0 mm
02:10 -11 °C -12.1 °C 34361.1 hPa Calm   5.1 km/h 88 % 0 mm
02:16 -10.9 °C -11.9 °C 34361.1 hPa NNE 5.1 km/h 10.3 km/h 89 % 0 mm
02:22 -10.9 °C -12 °C 34361.1 hPa Calm   5.1 km/h 88 % 0 mm
02:28 -10.9 °C -12 °C 34361.1 hPa Calm   2.6 km/h 88 % 0 mm
02:34 -10.9 °C -12 °C 34347.6 hPa Calm     88 % 0 mm
02:40 -11 °C -12.1 °C 34347.6 hPa NNW 5.1 km/h 7.7 km/h 88 % 0 mm
02:46 -11 °C -12.1 °C 34347.6 hPa NNW 2.3 km/h 2.6 km/h 88 % 0 mm
02:52 -11 °C -12.1 °C 34347.6 hPa NNW 2.3 km/h 5.1 km/h 88 % 0 mm
02:58 -11 °C -12.1 °C 34347.6 hPa NNW 2.3 km/h 5.1 km/h 88 % 0 mm
03:04 -10.9 °C -12.1 °C 34337.4 hPa NNW 2.3 km/h 2.6 km/h 87 % 0 mm
03:10 -10.9 °C -12.1 °C 34337.4 hPa NNW 2.3 km/h 5.1 km/h 87 % 0 mm
03:16 -11 °C -12.2 °C 34337.4 hPa NW 5.1 km/h 5.1 km/h 87 % 0 mm
03:22 -11.1 °C -12.2 °C 34337.4 hPa Calm   2.6 km/h 88 % 0 mm
03:28 -11.2 °C -12.2 °C 34337.4 hPa NW 5.1 km/h 7.7 km/h 88 % 0 mm
03:34 -11.2 °C -12.3 °C 34337.4 hPa Calm   2.6 km/h 88 % 0 mm
03:40 -11.2 °C -12.2 °C 34337.4 hPa Calm   5.1 km/h 89 % 0 mm
03:46 -11.2 °C -12.3 °C 34337.4 hPa Calm   2.6 km/h 88 % 0 mm
03:52 -11.3 °C -12.4 °C 34337.4 hPa Calm     88 % 0 mm
03:58 -11.4 °C -12.4 °C 34327.3 hPa Calm   2.6 km/h 88 % 0 mm
04:04 -11.4 °C -12.4 °C 34327.3 hPa WNW 2.3 km/h 2.6 km/h 89 % 0 mm
04:10 -11.6 °C -12.5 °C 34327.3 hPa Calm   2.6 km/h 89 % 0 mm
04:16 -11.5 °C -12.4 °C 34327.3 hPa NNW 2.3 km/h 5.1 km/h 89 % 0 mm
04:22 -11.6 °C -12.5 °C 34327.3 hPa Calm   5.1 km/h 89 % 0 mm
04:28 -11.6 °C -12.4 °C 34327.3 hPa Calm   2.6 km/h 90 % 0 mm
04:34 -11.7 °C -12.7 °C 34327.3 hPa Calm     89 % 0 mm
04:40 -11.7 °C -12.5 °C 34327.3 hPa Calm   2.6 km/h 91 % 0 mm
04:46 -11.6 °C -12.4 °C 34327.3 hPa Calm     91 % 0 mm
04:52 -11.7 °C -12.7 °C 34327.3 hPa Calm     89 % 0 mm
04:58 -11.8 °C -12.6 °C 34327.3 hPa Calm   2.6 km/h 91 % 0 mm
05:04 -11.8 °C -12.6 °C 34327.3 hPa Calm   2.6 km/h 91 % 0 mm
05:10 -11.8 °C -12.6 °C 34313.7 hPa NNW 2.3 km/h 5.1 km/h 91 % 0 mm
05:16 -11.9 °C -12.7 °C 34327.3 hPa North 2.3 km/h 5.1 km/h 91 % 0 mm
05:22 -12.1 °C -12.8 °C 34313.7 hPa NW 2.3 km/h 5.1 km/h 91 % 0 mm
05:29 -12.1 °C -12.7 °C 34327.3 hPa Calm   2.6 km/h 92 % 0 mm
05:35 -12.1 °C -12.7 °C 34327.3 hPa Calm   5.1 km/h 92 % 0 mm
05:41 -12 °C -12.7 °C 34313.7 hPa Calm   5.1 km/h 92 % 0 mm
05:47 -12 °C -12.8 °C 34313.7 hPa NW 2.3 km/h 5.1 km/h 91 % 0 mm
05:53 -12 °C -12.7 °C 34313.7 hPa NNW 5.1 km/h 5.1 km/h 92 % 0 mm
05:59 -12.1 °C -12.8 °C 34313.7 hPa Calm   2.6 km/h 91 % 0 mm
06:05 -12.1 °C -12.8 °C 34313.7 hPa Calm   2.6 km/h 92 % 0 mm
06:11 -12.2 °C -12.9 °C 34313.7 hPa NNW 2.3 km/h 2.6 km/h 91 % 0 mm
06:17 -12.3 °C -12.9 °C 34313.7 hPa NNW 2.3 km/h 2.6 km/h 92 % 0 mm
06:23 -12.3 °C -13 °C 34313.7 hPa Calm   2.6 km/h 92 % 0 mm
06:29 -12.3 °C -13 °C 34313.7 hPa Calm   2.6 km/h 92 % 0 mm
06:35 -12.3 °C -12.9 °C 34313.7 hPa Calm     92 % 0 mm
06:41 -12.3 °C -12.9 °C 34313.7 hPa Calm   2.6 km/h 92 % 0 mm
06:47 -12.2 °C -12.8 °C 34313.7 hPa Calm     92 % 0 mm
06:53 -12.1 °C -12.7 °C 34313.7 hPa Calm     92 % 0 mm
06:59 -11.9 °C -12.6 °C 34327.3 hPa Calm     92 % 0 mm
07:05 -11.8 °C -12.6 °C 34313.7 hPa Calm     91 % 0 mm
07:11 -11.7 °C -12.5 °C 34313.7 hPa Calm     91 % 0 mm
07:17 -11.6 °C -12.4 °C 34313.7 hPa Calm   2.6 km/h 91 % 0 mm
07:23 -11.6 °C -12.3 °C 34313.7 hPa Calm     91 % 0 mm
07:29 -11.4 °C -12.2 °C 34313.7 hPa North 2.3 km/h 5.1 km/h 91 % 0 mm
07:36 -11.4 °C -12.3 °C 34313.7 hPa North 2.3 km/h 5.1 km/h 90 % 0 mm
07:42 -11.3 °C -12.1 °C 34313.7 hPa Calm   2.6 km/h 91 % 0 mm
07:48 -11.2 °C -11.9 °C 34313.7 hPa Calm   2.6 km/h 91 % 0 mm
07:54 -11.1 °C -11.9 °C 34313.7 hPa Calm   2.6 km/h 90 % 0 mm
08:00 -10.9 °C -11.8 °C 34313.7 hPa Calm   2.6 km/h 90 % 0 mm
08:06 -10.7 °C -11.6 °C 34313.7 hPa Calm   2.6 km/h 90 % 0 mm
08:12 -10.3 °C -11.4 °C 34313.7 hPa NNW 2.3 km/h 5.1 km/h 88 % 0 mm
08:18 -10.2 °C -11.4 °C 34313.7 hPa Calm   2.6 km/h 87 % 0 mm
08:24 -10.1 °C -11.4 °C 34313.7 hPa Calm   5.1 km/h 86 % 0 mm
08:30 -10 °C -11.4 °C 34313.7 hPa North 2.3 km/h 2.6 km/h 85 % 0 mm
08:36 -9.9 °C -11.2 °C 34313.7 hPa ENE 5.1 km/h 5.1 km/h 86 % 0 mm
08:42 -9.6 °C -11 °C 34313.7 hPa Calm   7.7 km/h 85 % 0 mm
08:48 -9.5 °C -11 °C 34313.7 hPa NE 5.1 km/h 7.7 km/h 84 % 0 mm
08:54 -9.3 °C -10.7 °C 34313.7 hPa East 5.1 km/h 7.7 km/h 85 % 0 mm
09:00 -9.2 °C -10.9 °C 34313.7 hPa East 5.1 km/h 7.7 km/h 82 % 0 mm
09:06 -9.1 °C -10.9 °C 34313.7 hPa Calm   7.7 km/h 81 % 0 mm
09:12 -8.8 °C -10.8 °C 34313.7 hPa Calm   10.3 km/h 79 % 0 mm
09:18 -8.6 °C -10.7 °C 34313.7 hPa SSE 2.3 km/h 7.7 km/h 78 % 0 mm
09:24 -8.4 °C -10.7 °C 34313.7 hPa Calm   5.1 km/h 77 % 0 mm
09:30 -8.4 °C -10.8 °C 34313.7 hPa Calm   5.1 km/h 76 % 0 mm
09:36 -8.3 °C -11 °C 34313.7 hPa SE 2.3 km/h 10.3 km/h 73 % 0 mm
09:42 -8.2 °C -10.9 °C 34313.7 hPa ESE 2.3 km/h 5.1 km/h 73 % 0 mm
09:48 -8.1 °C -10.7 °C 34313.7 hPa SSE 2.3 km/h 2.6 km/h 74 % 0 mm
09:54 -7.7 °C -10.4 °C 34313.7 hPa SE 2.3 km/h 2.6 km/h 73 % 0 mm
10:00 -7.6 °C -10.6 °C 34313.7 hPa Calm   2.6 km/h 71 % 0 mm
10:06 -7.3 °C -10.6 °C 34313.7 hPa Calm   2.6 km/h 69 % 0 mm
10:12 -7.3 °C -10.6 °C 34313.7 hPa SE 2.3 km/h 5.1 km/h 69 % 0 mm
10:18 -7.2 °C -10.4 °C 34313.7 hPa Calm   5.1 km/h 69 % 0 mm
10:24 -7.1 °C -10.4 °C 34313.7 hPa Calm   5.1 km/h 68 % 0 mm
10:30 -6.9 °C -10.4 °C 34313.7 hPa SE 2.3 km/h 7.7 km/h 67 % 0 mm
10:36 -6.9 °C -10.7 °C 34313.7 hPa ESE 5.1 km/h 7.7 km/h 65 % 0 mm
10:42 -7 °C -10.2 °C 34313.7 hPa Calm   7.7 km/h 69 % 0 mm
10:49 -6.9 °C -10.2 °C 34303.6 hPa ESE 5.1 km/h 10.3 km/h 69 % 0 mm
10:55 -6.8 °C -10.1 °C 34313.7 hPa Calm   15.6 km/h 69 % 0 mm
11:01 -6.7 °C -10 °C 34303.6 hPa ESE 5.1 km/h 10.3 km/h 69 % 0 mm
11:07 -6.7 °C -10.1 °C 34303.6 hPa Calm   10.3 km/h 68 % 0 mm
11:13 -6.7 °C -9.8 °C 34303.6 hPa SSE 5.1 km/h 7.7 km/h 70 % 0 mm
11:19 -6.5 °C -9.9 °C 34303.6 hPa SW 7.6 km/h 7.7 km/h 68 % 0 mm
11:25 -6.3 °C -9.7 °C 34303.6 hPa Calm   2.6 km/h 68 % 0 mm
11:31 -6.4 °C -9.6 °C 34303.6 hPa SE 2.3 km/h 5.1 km/h 70 % 0 mm
11:37 -6.3 °C -10 °C 34303.6 hPa SSW 7.6 km/h 10.3 km/h 66 % 0 mm
11:43 -6.3 °C -10.2 °C 34303.6 hPa ESE 5.1 km/h 7.7 km/h 64 % 0 mm
11:49 -6.3 °C -10.1 °C 34303.6 hPa Calm   7.7 km/h 65 % 0 mm
11:55 -6.2 °C -10.2 °C 34303.6 hPa SSE 7.6 km/h 10.3 km/h 64 % 0 mm
12:01 -6.2 °C -10.2 °C 34303.6 hPa Calm   5.1 km/h 63 % 0 mm
12:07 -6.1 °C -10.4 °C 34303.6 hPa SE 2.3 km/h 7.7 km/h 61 % 0 mm
12:13 -6 °C -10.3 °C 34303.6 hPa SW 5.1 km/h 7.7 km/h 61 % 0 mm
12:19 -5.8 °C -10.6 °C 34303.6 hPa SW 2.3 km/h 5.1 km/h 58 % 0 mm
12:25 -5.6 °C -10.3 °C 34303.6 hPa SE 2.3 km/h 5.1 km/h 59 % 0 mm
12:31 -5.6 °C -10.4 °C 34303.6 hPa SSE 2.3 km/h 10.3 km/h 58 % 0 mm
12:37 -5.7 °C -10.5 °C 34293.4 hPa East 5.1 km/h 10.3 km/h 58 % 0 mm
12:43 -5.7 °C -10.6 °C 34293.4 hPa SW 7.6 km/h 18.2 km/h 57 % 0 mm
12:49 -5.7 °C -10.7 °C 34293.4 hPa WSW 10.3 km/h 15.6 km/h 57 % 0 mm
12:55 -5.6 °C -10.3 °C 34293.4 hPa Calm   2.6 km/h 59 % 0 mm
13:01 -5.3 °C -10.2 °C 34293.4 hPa SSW 12.7 km/h 15.6 km/h 58 % 0 mm
13:07 -5.5 °C -10.4 °C 34293.4 hPa SW 5.1 km/h 10.3 km/h 57 % 0 mm
13:13 -5.5 °C -10.3 °C 34293.4 hPa WSW 10.3 km/h 10.3 km/h 58 % 0 mm
13:19 -5.3 °C -10.6 °C 34293.4 hPa Calm   5.1 km/h 55 % 0 mm
13:25 -5.2 °C -10.5 °C 34279.9 hPa SSW 12.7 km/h 15.6 km/h 55 % 0 mm
13:31 -5.3 °C -10.9 °C 34279.9 hPa SW 5.1 km/h 5.1 km/h 53 % 0 mm
13:37 -5.2 °C -10.7 °C 34279.9 hPa SW 7.6 km/h 12.9 km/h 54 % 0 mm
13:43 -4.9 °C -10.5 °C 34279.9 hPa SSE 2.3 km/h 5.1 km/h 53 % 0 mm
13:49 -4.9 °C -10.7 °C 34279.9 hPa SW 5.1 km/h 20.8 km/h 52 % 0 mm
13:55 -5 °C -10.3 °C 34279.9 hPa Calm   10.3 km/h 55 % 0 mm
14:01 -4.9 °C -10.2 °C 34279.9 hPa South 5.1 km/h 7.7 km/h 55 % 0 mm
14:07 -5 °C -10.2 °C 34269.7 hPa SW 7.6 km/h 10.3 km/h 56 % 0 mm
14:13 -5.2 °C -10.2 °C 34269.7 hPa SSW 2.3 km/h 10.3 km/h 57 % 0 mm
14:15 -5.3 °C -10.1 °C 34269.7 hPa Calm   2.6 km/h 58 % 0 mm
14:21 -5.2 °C -10.2 °C 34269.7 hPa Calm   5.1 km/h 57 % 0 mm
14:27 -5.1 °C -10.4 °C 34269.7 hPa WSW 7.6 km/h 18.2 km/h 55 % 0 mm
14:33 -5.1 °C -10.2 °C 34269.7 hPa ESE 5.1 km/h 12.9 km/h 56 % 0 mm
14:39 -5.2 °C -10.3 °C 34269.7 hPa NE 12.7 km/h 15.6 km/h 56 % 0 mm
14:45 -5.3 °C -9.8 °C 34269.7 hPa NE 10.3 km/h 10.3 km/h 60 % 0 mm
14:51 -5.4 °C -10.2 °C 34269.7 hPa ENE 5.1 km/h 12.9 km/h 58 % 0 mm
14:57 -5.4 °C -10.1 °C 34269.7 hPa NE 5.1 km/h 10.3 km/h 59 % 0 mm
15:03 -5.2 °C -10.2 °C 34256.2 hPa East 5.1 km/h 12.9 km/h 57 % 0 mm
15:09 -5.4 °C -10.5 °C 34256.2 hPa East 5.1 km/h 10.3 km/h 56 % 0 mm
15:15 -5.3 °C -10.7 °C 34256.2 hPa Calm   2.6 km/h 54 % 0 mm
15:21 -5 °C -10.8 °C 34256.2 hPa West 2.3 km/h 2.6 km/h 52 % 0 mm
15:27 -5.1 °C -10.4 °C 34256.2 hPa ENE 2.3 km/h 2.6 km/h 55 % 0 mm
15:33 -5.2 °C -10.5 °C 34256.2 hPa ESE 2.3 km/h 5.1 km/h 55 % 0 mm
15:39 -5.2 °C -10.2 °C 34256.2 hPa WNW 2.3 km/h 2.6 km/h 57 % 0 mm
15:43 -5.3 °C -10.2 °C 34256.2 hPa NW 2.3 km/h 2.6 km/h 58 % 0 mm
15:49 -5.4 °C -9.8 °C 34256.2 hPa WSW 2.3 km/h 10.3 km/h 61 % 0 mm
15:55 -5.6 °C -10 °C 34256.2 hPa WNW 7.6 km/h 7.7 km/h 61 % 0 mm
16:01 -5.6 °C -10 °C 34256.2 hPa NNW 7.6 km/h 7.7 km/h 61 % 0 mm
16:07 -5.7 °C -9.6 °C 34256.2 hPa Calm   5.1 km/h 64 % 0 mm
16:13 -5.7 °C -9.8 °C 34246 hPa NNW 2.3 km/h 5.1 km/h 63 % 0 mm
16:19 -5.7 °C -9.9 °C 34246 hPa NNW 2.3 km/h 5.1 km/h 62 % 0 mm
16:25 -5.7 °C -9.8 °C 34246 hPa WNW 2.3 km/h 5.1 km/h 63 % 0 mm
16:32 -5.7 °C -9.7 °C 34235.8 hPa Calm   5.1 km/h 64 % 0 mm
16:38 -5.6 °C -9.7 °C 34235.8 hPa NW 2.3 km/h 5.1 km/h 63 % 0 mm
16:44 -5.6 °C -9.7 °C 34235.8 hPa NNW 2.3 km/h 2.6 km/h 63 % 0 mm
16:50 -5.5 °C -9.6 °C 34222.3 hPa Calm   7.7 km/h 63 % 0 mm
16:56 -5.3 °C -9.6 °C 34222.3 hPa North 5.1 km/h 12.9 km/h 62 % 0 mm
17:02 -5.2 °C -9.8 °C 34222.3 hPa North 2.3 km/h 7.7 km/h 59 % 0 mm
17:08 -4.9 °C -10.2 °C 34222.3 hPa NE 15.6 km/h 15.6 km/h 55 % 0 mm
17:14 -4.9 °C -10.1 °C 34222.3 hPa NE 2.3 km/h 12.9 km/h 56 % 0 mm
Meteo18
Compliments of Weather Underground - 4 mb

Script developed by  Jim McMurry - jmcmurry@mwt.net Adapted for the template by  Wim van der Kuil - Leuven-Template.eu

You find our weather info also at:

European Weather Network

Weather Underground

Equipment we use:

Weather-station
Davis Vue

Weather-program
Meteobridge

Weather-server
Raspberry PI 2 B+

Provider
1 and 1

Davis Vue

Meteobridge

Raspberry PI 2 B+

1 and 1